sensor_id;sensor_type;location;lat;lon;timestamp;P1;durP1;ratioP1;P2;durP2;ratioP2
12511;SDS011;6321;53.798;10.382;2022-10-16T00:01:09;6.67;;;5.20;;
12511;SDS011;6321;53.798;10.382;2022-10-16T00:03:36;7.63;;;4.70;;
12511;SDS011;6321;53.798;10.382;2022-10-16T00:06:02;5.67;;;4.90;;
12511;SDS011;6321;53.798;10.382;2022-10-16T00:08:29;7.47;;;5.27;;
12511;SDS011;6321;53.798;10.382;2022-10-16T00:13:31;8.20;;;5.57;;
12511;SDS011;6321;53.798;10.382;2022-10-16T00:15:57;9.13;;;5.80;;
12511;SDS011;6321;53.798;10.382;2022-10-16T00:18:24;9.93;;;5.93;;
12511;SDS011;6321;53.798;10.382;2022-10-16T00:20:50;7.63;;;5.43;;
12511;SDS011;6321;53.798;10.382;2022-10-16T00:23:16;6.17;;;4.80;;
12511;SDS011;6321;53.798;10.382;2022-10-16T00:25:42;6.60;;;4.97;;
12511;SDS011;6321;53.798;10.382;2022-10-16T00:28:08;6.67;;;5.40;;
12511;SDS011;6321;53.798;10.382;2022-10-16T00:30:37;6.60;;;5.00;;
12511;SDS011;6321;53.798;10.382;2022-10-16T00:33:02;8.80;;;5.30;;
12511;SDS011;6321;53.798;10.382;2022-10-16T00:35:28;6.27;;;5.67;;
12511;SDS011;6321;53.798;10.382;2022-10-16T00:37:54;8.27;;;5.57;;
12511;SDS011;6321;53.798;10.382;2022-10-16T00:40:20;6.37;;;5.50;;
12511;SDS011;6321;53.798;10.382;2022-10-16T00:42:46;6.63;;;4.90;;
12511;SDS011;6321;53.798;10.382;2022-10-16T00:45:12;7.80;;;5.83;;
12511;SDS011;6321;53.798;10.382;2022-10-16T00:47:44;9.47;;;5.43;;
12511;SDS011;6321;53.798;10.382;2022-10-16T00:52:41;7.53;;;5.83;;
12511;SDS011;6321;53.798;10.382;2022-10-16T00:55:07;9.97;;;5.33;;
12511;SDS011;6321;53.798;10.382;2022-10-16T00:57:34;6.87;;;5.23;;
12511;SDS011;6321;53.798;10.382;2022-10-16T01:00:00;7.27;;;4.63;;
12511;SDS011;6321;53.798;10.382;2022-10-16T01:02:27;9.10;;;5.70;;
12511;SDS011;6321;53.798;10.382;2022-10-16T01:04:53;7.20;;;5.33;;
12511;SDS011;6321;53.798;10.382;2022-10-16T01:07:22;6.17;;;5.57;;
12511;SDS011;6321;53.798;10.382;2022-10-16T01:17:41;6.60;;;4.87;;
12511;SDS011;6321;53.798;10.382;2022-10-16T01:20:31;8.10;;;4.83;;
12511;SDS011;6321;53.798;10.382;2022-10-16T01:23:15;9.13;;;4.60;;
12511;SDS011;6321;53.798;10.382;2022-10-16T01:28:33;5.13;;;4.40;;
12511;SDS011;6321;53.798;10.382;2022-10-16T01:31:00;10.30;;;5.50;;
12511;SDS011;6321;53.798;10.382;2022-10-16T01:33:38;5.60;;;4.90;;
12511;SDS011;6321;53.798;10.382;2022-10-16T01:36:10;8.97;;;4.37;;
12511;SDS011;6321;53.798;10.382;2022-10-16T01:38:38;7.07;;;4.47;;
12511;SDS011;6321;53.798;10.382;2022-10-16T01:41:09;4.43;;;4.00;;
12511;SDS011;6321;53.798;10.382;2022-10-16T01:43:36;4.67;;;4.27;;
12511;SDS011;6321;53.798;10.382;2022-10-16T01:46:04;7.70;;;4.13;;
12511;SDS011;6321;53.798;10.382;2022-10-16T01:48:31;4.17;;;3.77;;
12511;SDS011;6321;53.798;10.382;2022-10-16T01:51:01;7.03;;;4.67;;
12511;SDS011;6321;53.798;10.382;2022-10-16T01:53:28;7.20;;;4.00;;
12511;SDS011;6321;53.798;10.382;2022-10-16T01:55:55;6.30;;;3.60;;
12511;SDS011;6321;53.798;10.382;2022-10-16T01:58:21;5.70;;;4.50;;
12511;SDS011;6321;53.798;10.382;2022-10-16T02:00:48;7.23;;;3.87;;
12511;SDS011;6321;53.798;10.382;2022-10-16T02:03:15;5.23;;;3.70;;
12511;SDS011;6321;53.798;10.382;2022-10-16T02:08:08;4.97;;;4.13;;
12511;SDS011;6321;53.798;10.382;2022-10-16T02:10:34;7.73;;;4.23;;
12511;SDS011;6321;53.798;10.382;2022-10-16T02:13:12;5.27;;;3.93;;
12511;SDS011;6321;53.798;10.382;2022-10-16T02:15:39;4.50;;;3.67;;
12511;SDS011;6321;53.798;10.382;2022-10-16T02:18:07;7.73;;;3.63;;
12511;SDS011;6321;53.798;10.382;2022-10-16T02:20:37;5.80;;;3.73;;
12511;SDS011;6321;53.798;10.382;2022-10-16T02:23:06;5.20;;;4.07;;
12511;SDS011;6321;53.798;10.382;2022-10-16T02:25:35;4.30;;;3.67;;
12511;SDS011;6321;53.798;10.382;2022-10-16T02:28:04;4.53;;;4.10;;
12511;SDS011;6321;53.798;10.382;2022-10-16T02:30:33;4.67;;;3.20;;
12511;SDS011;6321;53.798;10.382;2022-10-16T02:33:02;5.73;;;3.90;;
12511;SDS011;6321;53.798;10.382;2022-10-16T02:35:29;4.07;;;3.67;;
12511;SDS011;6321;53.798;10.382;2022-10-16T02:37:56;8.77;;;3.70;;
12511;SDS011;6321;53.798;10.382;2022-10-16T02:40:22;4.33;;;3.77;;
12511;SDS011;6321;53.798;10.382;2022-10-16T02:42:50;3.67;;;3.30;;
12511;SDS011;6321;53.798;10.382;2022-10-16T02:45:17;7.00;;;4.13;;
12511;SDS011;6321;53.798;10.382;2022-10-16T02:47:43;3.87;;;3.27;;
12511;SDS011;6321;53.798;10.382;2022-10-16T02:50:09;4.83;;;3.50;;
12511;SDS011;6321;53.798;10.382;2022-10-16T02:52:35;6.40;;;3.57;;
12511;SDS011;6321;53.798;10.382;2022-10-16T02:55:01;7.60;;;3.43;;
12511;SDS011;6321;53.798;10.382;2022-10-16T02:57:27;4.00;;;3.57;;
12511;SDS011;6321;53.798;10.382;2022-10-16T02:59:53;5.53;;;3.47;;
12511;SDS011;6321;53.798;10.382;2022-10-16T03:02:19;6.50;;;3.50;;
12511;SDS011;6321;53.798;10.382;2022-10-16T03:04:45;5.00;;;3.67;;
12511;SDS011;6321;53.798;10.382;2022-10-16T03:07:11;4.17;;;3.47;;
12511;SDS011;6321;53.798;10.382;2022-10-16T03:09:37;4.10;;;3.23;;
12511;SDS011;6321;53.798;10.382;2022-10-16T03:12:03;3.60;;;3.20;;
12511;SDS011;6321;53.798;10.382;2022-10-16T03:14:29;4.53;;;3.23;;
12511;SDS011;6321;53.798;10.382;2022-10-16T03:16:55;5.77;;;3.60;;
12511;SDS011;6321;53.798;10.382;2022-10-16T03:19:21;3.40;;;3.07;;
12511;SDS011;6321;53.798;10.382;2022-10-16T03:21:47;3.50;;;3.20;;
12511;SDS011;6321;53.798;10.382;2022-10-16T03:24:13;4.97;;;3.00;;
12511;SDS011;6321;53.798;10.382;2022-10-16T03:26:39;4.23;;;3.07;;
12511;SDS011;6321;53.798;10.382;2022-10-16T03:29:05;3.80;;;3.37;;
12511;SDS011;6321;53.798;10.382;2022-10-16T03:31:31;5.80;;;2.83;;
12511;SDS011;6321;53.798;10.382;2022-10-16T03:33:57;4.93;;;2.77;;
12511;SDS011;6321;53.798;10.382;2022-10-16T03:36:23;4.17;;;2.67;;
12511;SDS011;6321;53.798;10.382;2022-10-16T03:38:49;5.17;;;3.10;;
12511;SDS011;6321;53.798;10.382;2022-10-16T03:41:15;7.83;;;2.93;;
12511;SDS011;6321;53.798;10.382;2022-10-16T03:43:41;5.30;;;2.57;;
12511;SDS011;6321;53.798;10.382;2022-10-16T03:46:07;3.00;;;2.70;;
12511;SDS011;6321;53.798;10.382;2022-10-16T03:48:33;6.20;;;2.70;;
12511;SDS011;6321;53.798;10.382;2022-10-16T03:50:59;4.43;;;2.87;;
12511;SDS011;6321;53.798;10.382;2022-10-16T03:53:25;4.73;;;3.97;;
12511;SDS011;6321;53.798;10.382;2022-10-16T03:55:51;3.97;;;2.33;;
12511;SDS011;6321;53.798;10.382;2022-10-16T03:58:17;7.20;;;2.87;;
12511;SDS011;6321;53.798;10.382;2022-10-16T04:00:45;3.67;;;2.10;;
12511;SDS011;6321;53.798;10.382;2022-10-16T04:03:12;4.87;;;2.10;;
12511;SDS011;6321;53.798;10.382;2022-10-16T04:05:38;5.40;;;2.13;;
12511;SDS011;6321;53.798;10.382;2022-10-16T04:08:04;3.63;;;2.23;;
12511;SDS011;6321;53.798;10.382;2022-10-16T04:10:30;1.97;;;1.80;;
12511;SDS011;6321;53.798;10.382;2022-10-16T04:12:56;4.10;;;2.63;;
12511;SDS011;6321;53.798;10.382;2022-10-16T04:15:23;3.37;;;2.20;;
12511;SDS011;6321;53.798;10.382;2022-10-16T04:17:49;2.47;;;1.90;;
12511;SDS011;6321;53.798;10.382;2022-10-16T04:20:15;3.87;;;2.13;;
12511;SDS011;6321;53.798;10.382;2022-10-16T04:22:41;3.43;;;2.40;;
12511;SDS011;6321;53.798;10.382;2022-10-16T04:25:07;3.50;;;2.10;;
12511;SDS011;6321;53.798;10.382;2022-10-16T04:27:33;2.97;;;2.73;;
12511;SDS011;6321;53.798;10.382;2022-10-16T04:29:59;2.80;;;1.70;;
12511;SDS011;6321;53.798;10.382;2022-10-16T04:32:25;3.27;;;2.10;;
12511;SDS011;6321;53.798;10.382;2022-10-16T04:34:51;4.87;;;2.13;;
12511;SDS011;6321;53.798;10.382;2022-10-16T04:37:17;4.80;;;2.30;;
12511;SDS011;6321;53.798;10.382;2022-10-16T04:39:43;2.97;;;2.13;;
12511;SDS011;6321;53.798;10.382;2022-10-16T04:42:09;3.63;;;1.73;;
12511;SDS011;6321;53.798;10.382;2022-10-16T04:44:35;7.67;;;2.33;;
12511;SDS011;6321;53.798;10.382;2022-10-16T04:47:01;5.53;;;2.00;;
12511;SDS011;6321;53.798;10.382;2022-10-16T04:49:30;3.17;;;1.93;;
12511;SDS011;6321;53.798;10.382;2022-10-16T04:51:56;4.00;;;2.07;;
12511;SDS011;6321;53.798;10.382;2022-10-16T04:54:22;4.43;;;2.10;;
12511;SDS011;6321;53.798;10.382;2022-10-16T04:56:48;3.37;;;2.40;;
12511;SDS011;6321;53.798;10.382;2022-10-16T04:59:16;6.63;;;4.47;;
12511;SDS011;6321;53.798;10.382;2022-10-16T05:01:42;7.13;;;4.90;;
12511;SDS011;6321;53.798;10.382;2022-10-16T05:04:08;10.00;;;7.20;;
12511;SDS011;6321;53.798;10.382;2022-10-16T05:06:35;8.47;;;7.47;;
12511;SDS011;6321;53.798;10.382;2022-10-16T05:09:01;11.13;;;7.10;;
12511;SDS011;6321;53.798;10.382;2022-10-16T05:11:27;9.03;;;6.10;;
12511;SDS011;6321;53.798;10.382;2022-10-16T05:13:53;5.13;;;3.67;;
12511;SDS011;6321;53.798;10.382;2022-10-16T05:16:19;5.40;;;2.90;;
12511;SDS011;6321;53.798;10.382;2022-10-16T05:18:45;5.63;;;2.40;;
12511;SDS011;6321;53.798;10.382;2022-10-16T05:21:10;5.77;;;2.40;;
12511;SDS011;6321;53.798;10.382;2022-10-16T05:23:36;3.33;;;2.37;;
12511;SDS011;6321;53.798;10.382;2022-10-16T05:26:02;3.50;;;2.03;;
12511;SDS011;6321;53.798;10.382;2022-10-16T05:28:29;4.83;;;1.97;;
12511;SDS011;6321;53.798;10.382;2022-10-16T05:30:55;1.90;;;1.47;;
12511;SDS011;6321;53.798;10.382;2022-10-16T05:33:22;2.47;;;1.83;;
12511;SDS011;6321;53.798;10.382;2022-10-16T05:35:48;2.43;;;1.87;;
12511;SDS011;6321;53.798;10.382;2022-10-16T05:38:14;4.73;;;2.27;;
12511;SDS011;6321;53.798;10.382;2022-10-16T05:40:40;3.93;;;2.10;;
12511;SDS011;6321;53.798;10.382;2022-10-16T05:43:06;6.53;;;2.33;;
12511;SDS011;6321;53.798;10.382;2022-10-16T05:45:32;2.40;;;2.10;;
12511;SDS011;6321;53.798;10.382;2022-10-16T05:47:59;4.17;;;2.57;;
12511;SDS011;6321;53.798;10.382;2022-10-16T05:50:25;2.50;;;2.07;;
12511;SDS011;6321;53.798;10.382;2022-10-16T05:52:51;6.30;;;2.50;;
12511;SDS011;6321;53.798;10.382;2022-10-16T05:55:17;4.00;;;2.67;;
12511;SDS011;6321;53.798;10.382;2022-10-16T05:57:43;6.70;;;2.80;;
12511;SDS011;6321;53.798;10.382;2022-10-16T06:00:09;2.10;;;1.90;;
12511;SDS011;6321;53.798;10.382;2022-10-16T06:02:35;4.03;;;2.50;;
12511;SDS011;6321;53.798;10.382;2022-10-16T06:05:01;4.77;;;2.43;;
12511;SDS011;6321;53.798;10.382;2022-10-16T06:07:27;4.03;;;2.60;;
12511;SDS011;6321;53.798;10.382;2022-10-16T06:09:53;4.57;;;2.40;;
12511;SDS011;6321;53.798;10.382;2022-10-16T06:12:19;6.53;;;2.80;;
12511;SDS011;6321;53.798;10.382;2022-10-16T06:14:45;3.57;;;2.40;;
12511;SDS011;6321;53.798;10.382;2022-10-16T06:17:12;6.07;;;2.60;;
12511;SDS011;6321;53.798;10.382;2022-10-16T06:19:38;2.57;;;2.33;;
12511;SDS011;6321;53.798;10.382;2022-10-16T06:22:04;7.63;;;2.90;;
12511;SDS011;6321;53.798;10.382;2022-10-16T06:24:30;4.63;;;3.20;;
12511;SDS011;6321;53.798;10.382;2022-10-16T06:26:56;3.13;;;2.50;;
12511;SDS011;6321;53.798;10.382;2022-10-16T06:29:22;6.00;;;2.17;;
12511;SDS011;6321;53.798;10.382;2022-10-16T06:31:48;4.20;;;2.50;;
12511;SDS011;6321;53.798;10.382;2022-10-16T06:34:14;3.03;;;2.13;;
12511;SDS011;6321;53.798;10.382;2022-10-16T06:36:40;5.93;;;2.50;;
12511;SDS011;6321;53.798;10.382;2022-10-16T06:39:06;3.47;;;2.17;;
12511;SDS011;6321;53.798;10.382;2022-10-16T06:41:32;3.80;;;2.20;;
12511;SDS011;6321;53.798;10.382;2022-10-16T06:43:58;3.87;;;2.13;;
12511;SDS011;6321;53.798;10.382;2022-10-16T06:46:25;4.20;;;2.30;;
12511;SDS011;6321;53.798;10.382;2022-10-16T06:48:52;4.37;;;2.80;;
12511;SDS011;6321;53.798;10.382;2022-10-16T06:51:19;2.67;;;2.20;;
12511;SDS011;6321;53.798;10.382;2022-10-16T06:53:46;2.80;;;2.20;;
12511;SDS011;6321;53.798;10.382;2022-10-16T06:56:18;4.47;;;2.50;;
12511;SDS011;6321;53.798;10.382;2022-10-16T06:58:44;4.47;;;2.43;;
12511;SDS011;6321;53.798;10.382;2022-10-16T07:01:11;3.87;;;2.37;;
12511;SDS011;6321;53.798;10.382;2022-10-16T07:03:38;2.40;;;2.20;;
12511;SDS011;6321;53.798;10.382;2022-10-16T07:06:04;3.53;;;2.47;;
12511;SDS011;6321;53.798;10.382;2022-10-16T07:08:33;5.40;;;2.97;;
12511;SDS011;6321;53.798;10.382;2022-10-16T07:11:00;3.67;;;2.93;;
12511;SDS011;6321;53.798;10.382;2022-10-16T07:13:26;3.23;;;2.70;;
12511;SDS011;6321;53.798;10.382;2022-10-16T07:15:52;5.33;;;2.70;;
12511;SDS011;6321;53.798;10.382;2022-10-16T07:18:18;4.00;;;2.73;;
12511;SDS011;6321;53.798;10.382;2022-10-16T07:20:44;3.33;;;2.60;;
12511;SDS011;6321;53.798;10.382;2022-10-16T07:23:10;3.83;;;2.40;;
12511;SDS011;6321;53.798;10.382;2022-10-16T07:25:36;4.90;;;2.50;;
12511;SDS011;6321;53.798;10.382;2022-10-16T07:28:02;3.87;;;2.70;;
12511;SDS011;6321;53.798;10.382;2022-10-16T07:30:28;4.60;;;2.37;;
12511;SDS011;6321;53.798;10.382;2022-10-16T07:32:54;5.10;;;2.37;;
12511;SDS011;6321;53.798;10.382;2022-10-16T07:35:20;3.83;;;2.13;;
12511;SDS011;6321;53.798;10.382;2022-10-16T07:37:46;4.17;;;2.40;;
12511;SDS011;6321;53.798;10.382;2022-10-16T07:40:12;3.03;;;2.70;;
12511;SDS011;6321;53.798;10.382;2022-10-16T07:42:38;5.47;;;2.43;;
12511;SDS011;6321;53.798;10.382;2022-10-16T07:45:04;4.37;;;2.60;;
12511;SDS011;6321;53.798;10.382;2022-10-16T07:47:30;4.43;;;2.60;;
12511;SDS011;6321;53.798;10.382;2022-10-16T07:49:56;3.97;;;2.87;;
12511;SDS011;6321;53.798;10.382;2022-10-16T07:52:22;3.87;;;2.30;;
12511;SDS011;6321;53.798;10.382;2022-10-16T07:54:48;3.13;;;2.63;;
12511;SDS011;6321;53.798;10.382;2022-10-16T07:57:14;3.03;;;2.37;;
12511;SDS011;6321;53.798;10.382;2022-10-16T07:59:44;4.70;;;2.57;;
12511;SDS011;6321;53.798;10.382;2022-10-16T08:02:10;4.97;;;2.53;;
12511;SDS011;6321;53.798;10.382;2022-10-16T08:04:36;5.77;;;2.30;;
12511;SDS011;6321;53.798;10.382;2022-10-16T08:07:02;4.00;;;2.77;;
12511;SDS011;6321;53.798;10.382;2022-10-16T08:09:28;3.13;;;2.43;;
12511;SDS011;6321;53.798;10.382;2022-10-16T08:11:54;5.63;;;2.73;;
12511;SDS011;6321;53.798;10.382;2022-10-16T08:14:20;6.20;;;3.00;;
12511;SDS011;6321;53.798;10.382;2022-10-16T08:16:46;3.90;;;2.57;;
12511;SDS011;6321;53.798;10.382;2022-10-16T08:19:12;4.13;;;3.00;;
12511;SDS011;6321;53.798;10.382;2022-10-16T08:21:38;4.40;;;2.67;;
12511;SDS011;6321;53.798;10.382;2022-10-16T08:24:04;2.60;;;2.20;;
12511;SDS011;6321;53.798;10.382;2022-10-16T08:26:30;4.37;;;2.23;;
12511;SDS011;6321;53.798;10.382;2022-10-16T08:28:56;3.83;;;2.53;;
12511;SDS011;6321;53.798;10.382;2022-10-16T08:31:23;6.50;;;3.08;;
12511;SDS011;6321;53.798;10.382;2022-10-16T08:33:49;3.77;;;2.20;;
12511;SDS011;6321;53.798;10.382;2022-10-16T08:36:16;3.53;;;2.57;;
12511;SDS011;6321;53.798;10.382;2022-10-16T08:38:42;3.20;;;2.70;;
12511;SDS011;6321;53.798;10.382;2022-10-16T08:46:45;2.30;;;2.10;;
12511;SDS011;6321;53.798;10.382;2022-10-16T08:49:09;5.30;;;2.53;;
12511;SDS011;6321;53.798;10.382;2022-10-16T08:51:37;2.90;;;2.60;;
12511;SDS011;6321;53.798;10.382;2022-10-16T08:54:50;4.77;;;2.50;;
12511;SDS011;6321;53.798;10.382;2022-10-16T08:56:50;2.97;;;2.30;;
12511;SDS011;6321;53.798;10.382;2022-10-16T08:59:16;4.97;;;2.60;;
12511;SDS011;6321;53.798;10.382;2022-10-16T09:01:44;2.40;;;2.20;;
12511;SDS011;6321;53.798;10.382;2022-10-16T09:06:56;4.83;;;3.20;;
12511;SDS011;6321;53.798;10.382;2022-10-16T09:09:27;2.53;;;2.30;;
12511;SDS011;6321;53.798;10.382;2022-10-16T09:12:04;3.13;;;2.77;;
12511;SDS011;6321;53.798;10.382;2022-10-16T09:17:06;3.50;;;2.23;;
12511;SDS011;6321;53.798;10.382;2022-10-16T09:19:40;2.87;;;2.00;;
12511;SDS011;6321;53.798;10.382;2022-10-16T09:22:14;2.60;;;2.30;;
12511;SDS011;6321;53.798;10.382;2022-10-16T09:24:41;3.37;;;2.27;;
12511;SDS011;6321;53.798;10.382;2022-10-16T09:27:10;5.50;;;2.03;;
12511;SDS011;6321;53.798;10.382;2022-10-16T09:29:36;3.30;;;2.10;;
12511;SDS011;6321;53.798;10.382;2022-10-16T09:32:12;2.97;;;2.13;;
12511;SDS011;6321;53.798;10.382;2022-10-16T09:34:42;3.43;;;2.23;;
12511;SDS011;6321;53.798;10.382;2022-10-16T09:37:09;4.57;;;1.90;;
12511;SDS011;6321;53.798;10.382;2022-10-16T09:39:44;3.30;;;1.90;;
12511;SDS011;6321;53.798;10.382;2022-10-16T09:42:14;1.83;;;1.70;;
12511;SDS011;6321;53.798;10.382;2022-10-16T09:44:40;3.17;;;1.93;;
12511;SDS011;6321;53.798;10.382;2022-10-16T09:47:13;3.70;;;1.80;;
12511;SDS011;6321;53.798;10.382;2022-10-16T09:49:52;3.73;;;1.60;;
12511;SDS011;6321;53.798;10.382;2022-10-16T09:52:19;4.30;;;1.53;;
12511;SDS011;6321;53.798;10.382;2022-10-16T09:54:49;3.20;;;1.97;;
12511;SDS011;6321;53.798;10.382;2022-10-16T09:57:15;4.60;;;1.50;;
12511;SDS011;6321;53.798;10.382;2022-10-16T09:59:48;2.70;;;1.63;;
12511;SDS011;6321;53.798;10.382;2022-10-16T10:02:14;4.90;;;1.63;;
12511;SDS011;6321;53.798;10.382;2022-10-16T10:04:48;3.50;;;1.60;;
12511;SDS011;6321;53.798;10.382;2022-10-16T10:07:20;5.20;;;1.70;;
12511;SDS011;6321;53.798;10.382;2022-10-16T10:09:47;3.17;;;1.60;;
12511;SDS011;6321;53.798;10.382;2022-10-16T10:12:31;3.97;;;1.50;;
12511;SDS011;6321;53.798;10.382;2022-10-16T10:15:04;4.10;;;1.70;;
12511;SDS011;6321;53.798;10.382;2022-10-16T10:17:30;2.23;;;1.83;;
12511;SDS011;6321;53.798;10.382;2022-10-16T10:19:58;6.33;;;1.97;;
12511;SDS011;6321;53.798;10.382;2022-10-16T10:22:43;2.67;;;1.70;;
12511;SDS011;6321;53.798;10.382;2022-10-16T10:32:54;3.50;;;1.40;;
12511;SDS011;6321;53.798;10.382;2022-10-16T10:35:24;4.03;;;1.57;;
12511;SDS011;6321;53.798;10.382;2022-10-16T10:38:05;2.73;;;1.43;;
12511;SDS011;6321;53.798;10.382;2022-10-16T10:40:46;2.47;;;1.27;;
12511;SDS011;6321;53.798;10.382;2022-10-16T10:43:25;5.67;;;1.67;;
12511;SDS011;6321;53.798;10.382;2022-10-16T10:45:58;2.93;;;1.20;;
12511;SDS011;6321;53.798;10.382;2022-10-16T10:48:46;3.53;;;1.50;;
12511;SDS011;6321;53.798;10.382;2022-10-16T10:51:21;3.57;;;1.30;;
12511;SDS011;6321;53.798;10.382;2022-10-16T11:01:54;2.07;;;1.30;;
12511;SDS011;6321;53.798;10.382;2022-10-16T11:04:45;1.90;;;1.37;;
12511;SDS011;6321;53.798;10.382;2022-10-16T11:07:30;4.07;;;1.50;;
12511;SDS011;6321;53.798;10.382;2022-10-16T11:09:59;3.57;;;1.30;;
12511;SDS011;6321;53.798;10.382;2022-10-16T11:12:29;5.90;;;1.47;;
12511;SDS011;6321;53.798;10.382;2022-10-16T11:14:58;5.33;;;1.70;;
12511;SDS011;6321;53.798;10.382;2022-10-16T11:17:41;3.30;;;1.40;;
12511;SDS011;6321;53.798;10.382;2022-10-16T11:20:12;4.67;;;1.40;;
12511;SDS011;6321;53.798;10.382;2022-10-16T11:22:40;3.87;;;1.50;;
12511;SDS011;6321;53.798;10.382;2022-10-16T11:27:35;4.10;;;1.40;;
12511;SDS011;6321;53.798;10.382;2022-10-16T11:30:04;2.60;;;1.40;;
12511;SDS011;6321;53.798;10.382;2022-10-16T11:32:46;1.80;;;1.23;;
12511;SDS011;6321;53.798;10.382;2022-10-16T11:35:17;2.77;;;1.40;;
12511;SDS011;6321;53.798;10.382;2022-10-16T11:37:44;1.60;;;1.20;;
12511;SDS011;6321;53.798;10.382;2022-10-16T11:40:17;4.13;;;1.40;;
12511;SDS011;6321;53.798;10.382;2022-10-16T11:42:46;1.30;;;1.20;;
12511;SDS011;6321;53.798;10.382;2022-10-16T11:45:26;5.10;;;1.60;;
12511;SDS011;6321;53.798;10.382;2022-10-16T11:50:26;4.13;;;1.23;;
12511;SDS011;6321;53.798;10.382;2022-10-16T11:52:56;4.73;;;1.27;;
12511;SDS011;6321;53.798;10.382;2022-10-16T11:55:26;2.73;;;1.20;;
12511;SDS011;6321;53.798;10.382;2022-10-16T11:58:01;3.03;;;1.30;;
12511;SDS011;6321;53.798;10.382;2022-10-16T12:00:40;2.53;;;1.23;;
12511;SDS011;6321;53.798;10.382;2022-10-16T12:03:12;4.70;;;1.30;;
12511;SDS011;6321;53.798;10.382;2022-10-16T12:08:26;2.70;;;1.10;;
12511;SDS011;6321;53.798;10.382;2022-10-16T12:10:52;2.30;;;1.30;;
12511;SDS011;6321;53.798;10.382;2022-10-16T12:13:36;3.13;;;1.33;;
12511;SDS011;6321;53.798;10.382;2022-10-16T12:18:38;3.33;;;1.60;;
12511;SDS011;6321;53.798;10.382;2022-10-16T12:21:05;1.63;;;1.13;;
12511;SDS011;6321;53.798;10.382;2022-10-16T12:23:45;3.93;;;1.30;;
12511;SDS011;6321;53.798;10.382;2022-10-16T12:26:12;5.33;;;1.40;;
12511;SDS011;6321;53.798;10.382;2022-10-16T12:28:38;2.00;;;1.10;;
12511;SDS011;6321;53.798;10.382;2022-10-16T12:31:06;2.10;;;1.20;;
12511;SDS011;6321;53.798;10.382;2022-10-16T12:33:34;1.33;;;1.00;;
12511;SDS011;6321;53.798;10.382;2022-10-16T12:36:02;3.83;;;1.20;;
12511;SDS011;6321;53.798;10.382;2022-10-16T12:38:38;2.47;;;1.27;;
12511;SDS011;6321;53.798;10.382;2022-10-16T12:41:11;5.87;;;1.50;;
12511;SDS011;6321;53.798;10.382;2022-10-16T12:43:43;5.50;;;1.57;;
12511;SDS011;6321;53.798;10.382;2022-10-16T12:48:36;2.43;;;1.40;;
12511;SDS011;6321;53.798;10.382;2022-10-16T12:53:57;2.93;;;1.33;;
12511;SDS011;6321;53.798;10.382;2022-10-16T12:56:36;2.93;;;1.30;;
12511;SDS011;6321;53.798;10.382;2022-10-16T12:59:07;3.87;;;1.40;;
12511;SDS011;6321;53.798;10.382;2022-10-16T13:01:37;2.00;;;1.10;;
12511;SDS011;6321;53.798;10.382;2022-10-16T13:06:55;3.60;;;1.53;;
12511;SDS011;6321;53.798;10.382;2022-10-16T13:12:17;2.87;;;1.43;;
12511;SDS011;6321;53.798;10.382;2022-10-16T13:14:56;5.20;;;1.20;;
12511;SDS011;6321;53.798;10.382;2022-10-16T13:25:40;3.97;;;1.40;;
12511;SDS011;6321;53.798;10.382;2022-10-16T13:28:09;2.73;;;1.20;;
12511;SDS011;6321;53.798;10.382;2022-10-16T13:30:38;2.27;;;1.20;;
12511;SDS011;6321;53.798;10.382;2022-10-16T13:33:15;1.83;;;1.00;;
12511;SDS011;6321;53.798;10.382;2022-10-16T13:35:50;3.83;;;1.17;;
12511;SDS011;6321;53.798;10.382;2022-10-16T13:38:20;4.07;;;1.80;;
12511;SDS011;6321;53.798;10.382;2022-10-16T13:40:56;2.87;;;1.47;;
12511;SDS011;6321;53.798;10.382;2022-10-16T13:43:24;3.03;;;1.30;;
12511;SDS011;6321;53.798;10.382;2022-10-16T13:45:55;2.03;;;1.17;;
12511;SDS011;6321;53.798;10.382;2022-10-16T13:48:21;7.33;;;1.60;;
12511;SDS011;6321;53.798;10.382;2022-10-16T13:50:57;3.73;;;1.33;;
12511;SDS011;6321;53.798;10.382;2022-10-16T13:53:23;3.83;;;1.37;;
12511;SDS011;6321;53.798;10.382;2022-10-16T13:55:49;2.90;;;1.10;;
12511;SDS011;6321;53.798;10.382;2022-10-16T13:58:15;4.30;;;1.40;;
12511;SDS011;6321;53.798;10.382;2022-10-16T14:00:52;2.80;;;1.30;;
12511;SDS011;6321;53.798;10.382;2022-10-16T14:03:19;3.63;;;1.10;;
12511;SDS011;6321;53.798;10.382;2022-10-16T14:05:49;4.37;;;1.47;;
12511;SDS011;6321;53.798;10.382;2022-10-16T14:08:16;4.00;;;2.10;;
12511;SDS011;6321;53.798;10.382;2022-10-16T14:10:42;5.20;;;1.50;;
12511;SDS011;6321;53.798;10.382;2022-10-16T14:13:12;3.70;;;1.30;;
12511;SDS011;6321;53.798;10.382;2022-10-16T14:15:45;3.40;;;1.37;;
12511;SDS011;6321;53.798;10.382;2022-10-16T14:18:17;3.47;;;1.40;;
12511;SDS011;6321;53.798;10.382;2022-10-16T14:20:44;4.47;;;1.33;;
12511;SDS011;6321;53.798;10.382;2022-10-16T14:23:19;2.30;;;1.30;;
12511;SDS011;6321;53.798;10.382;2022-10-16T14:25:46;7.80;;;1.50;;
12511;SDS011;6321;53.798;10.382;2022-10-16T14:28:21;3.83;;;1.30;;
12511;SDS011;6321;53.798;10.382;2022-10-16T14:31:30;5.17;;;1.63;;
12511;SDS011;6321;53.798;10.382;2022-10-16T14:33:37;2.90;;;1.20;;
12511;SDS011;6321;53.798;10.382;2022-10-16T14:38:28;2.50;;;1.43;;
12511;SDS011;6321;53.798;10.382;2022-10-16T14:40:55;3.93;;;1.30;;
12511;SDS011;6321;53.798;10.382;2022-10-16T14:43:29;5.63;;;1.50;;
12511;SDS011;6321;53.798;10.382;2022-10-16T14:45:56;3.17;;;2.10;;
12511;SDS011;6321;53.798;10.382;2022-10-16T14:48:22;4.13;;;1.60;;
12511;SDS011;6321;53.798;10.382;2022-10-16T14:50:49;5.27;;;1.53;;
12511;SDS011;6321;53.798;10.382;2022-10-16T14:53:15;3.77;;;1.57;;
12511;SDS011;6321;53.798;10.382;2022-10-16T14:55:41;4.30;;;1.60;;
12511;SDS011;6321;53.798;10.382;2022-10-16T14:58:10;5.53;;;1.60;;
12511;SDS011;6321;53.798;10.382;2022-10-16T15:00:39;3.13;;;1.40;;
12511;SDS011;6321;53.798;10.382;2022-10-16T15:03:05;4.03;;;1.30;;
12511;SDS011;6321;53.798;10.382;2022-10-16T15:05:31;3.13;;;1.57;;
12511;SDS011;6321;53.798;10.382;2022-10-16T15:07:57;2.83;;;1.37;;
12511;SDS011;6321;53.798;10.382;2022-10-16T15:10:24;5.10;;;1.50;;
12511;SDS011;6321;53.798;10.382;2022-10-16T15:12:51;4.47;;;1.57;;
12511;SDS011;6321;53.798;10.382;2022-10-16T15:15:24;4.33;;;1.60;;
12511;SDS011;6321;53.798;10.382;2022-10-16T15:17:54;5.27;;;1.53;;
12511;SDS011;6321;53.798;10.382;2022-10-16T15:20:24;3.53;;;1.20;;
12511;SDS011;6321;53.798;10.382;2022-10-16T15:22:51;6.70;;;1.57;;
12511;SDS011;6321;53.798;10.382;2022-10-16T15:27:46;6.17;;;1.63;;
12511;SDS011;6321;53.798;10.382;2022-10-16T15:30:12;2.70;;;1.60;;
12511;SDS011;6321;53.798;10.382;2022-10-16T15:32:37;4.43;;;1.30;;
12511;SDS011;6321;53.798;10.382;2022-10-16T15:35:03;2.07;;;1.23;;
12511;SDS011;6321;53.798;10.382;2022-10-16T15:37:30;2.93;;;1.10;;
12511;SDS011;6321;53.798;10.382;2022-10-16T15:39:55;3.57;;;1.50;;
12511;SDS011;6321;53.798;10.382;2022-10-16T15:42:21;5.37;;;1.50;;
12511;SDS011;6321;53.798;10.382;2022-10-16T15:44:47;2.23;;;1.40;;
12511;SDS011;6321;53.798;10.382;2022-10-16T15:47:15;3.40;;;1.33;;
12511;SDS011;6321;53.798;10.382;2022-10-16T15:49:41;4.80;;;1.50;;
12511;SDS011;6321;53.798;10.382;2022-10-16T15:52:07;5.83;;;1.87;;
12511;SDS011;6321;53.798;10.382;2022-10-16T15:54:33;6.77;;;1.70;;
12511;SDS011;6321;53.798;10.382;2022-10-16T15:56:59;5.03;;;1.40;;
12511;SDS011;6321;53.798;10.382;2022-10-16T15:59:25;4.63;;;1.47;;
12511;SDS011;6321;53.798;10.382;2022-10-16T16:01:51;5.67;;;1.80;;
12511;SDS011;6321;53.798;10.382;2022-10-16T16:04:17;3.20;;;1.47;;
12511;SDS011;6321;53.798;10.382;2022-10-16T16:06:43;2.93;;;1.40;;
12511;SDS011;6321;53.798;10.382;2022-10-16T16:09:12;3.17;;;1.57;;
12511;SDS011;6321;53.798;10.382;2022-10-16T16:11:38;4.13;;;1.20;;
12511;SDS011;6321;53.798;10.382;2022-10-16T16:14:05;3.70;;;1.33;;